createdAt,value
2018-06-29T00:02:23.964Z,83.20
2018-06-29T00:04:52.320Z,83.40
2018-06-29T00:07:21.201Z,82.90
2018-06-29T00:09:49.499Z,82.90
2018-06-29T00:12:17.826Z,82.50
2018-06-29T00:14:46.263Z,82.80
2018-06-29T00:17:14.576Z,82.70
2018-06-29T00:19:42.916Z,83.00
2018-06-29T00:22:12.063Z,83.50
2018-06-29T00:24:40.303Z,84.40
2018-06-29T00:27:08.620Z,85.20
2018-06-29T00:29:36.927Z,86.00
2018-06-29T00:32:05.283Z,86.50
2018-06-29T00:34:33.624Z,86.80
2018-06-29T00:37:01.931Z,86.90
2018-06-29T00:39:31.072Z,87.30
2018-06-29T00:41:59.375Z,86.90
2018-06-29T00:44:27.696Z,86.50
2018-06-29T00:46:56.012Z,86.50
2018-06-29T00:49:24.347Z,86.30
2018-06-29T00:51:52.738Z,86.10
2018-06-29T00:54:21.926Z,85.30
2018-06-29T00:56:50.460Z,84.80
2018-06-29T00:59:18.816Z,84.50
2018-06-29T01:01:47.139Z,84.10
2018-06-29T01:04:15.448Z,83.80
2018-06-29T01:06:43.764Z,83.40
2018-06-29T01:09:13.031Z,83.30
2018-06-29T01:11:41.369Z,83.40
2018-06-29T01:14:09.833Z,83.90
2018-06-29T01:16:38.420Z,84.00
2018-06-29T01:19:07.343Z,84.80
2018-06-29T01:21:35.796Z,85.50
2018-06-29T01:24:04.276Z,86.50
2018-06-29T01:26:32.759Z,87.30
2018-06-29T01:29:01.104Z,87.80
2018-06-29T01:31:29.436Z,88.30
2018-06-29T01:33:57.772Z,88.70
2018-06-29T01:36:26.080Z,89.00
2018-06-29T01:38:54.412Z,89.40
2018-06-29T01:41:22.772Z,90.00
2018-06-29T01:43:51.060Z,90.30
2018-06-29T01:46:19.372Z,90.70
2018-06-29T01:48:47.672Z,90.80
2018-06-29T01:51:15.992Z,90.90
2018-06-29T01:53:44.324Z,90.80
2018-06-29T01:56:12.647Z,90.90
2018-06-29T01:58:41.011Z,90.80
2018-06-29T02:01:09.341Z,90.80
2018-06-29T02:03:37.652Z,90.80
2018-06-29T02:06:07.015Z,90.70
2018-06-29T02:08:35.332Z,90.70
2018-06-29T02:11:03.684Z,90.50
2018-06-29T02:13:32.635Z,90.30
2018-06-29T02:16:00.963Z,89.80
2018-06-29T02:18:29.702Z,88.70
2018-06-29T02:20:58.032Z,88.10
2018-06-29T02:23:26.383Z,87.70
2018-06-29T02:25:54.711Z,87.40
2018-06-29T02:28:23.036Z,87.20
2018-06-29T02:30:51.570Z,87.10
2018-06-29T02:33:19.829Z,88.00
2018-06-29T02:35:48.117Z,88.70
2018-06-29T02:38:16.430Z,90.00
2018-06-29T02:40:44.749Z,90.80
2018-06-29T02:43:13.141Z,91.70
2018-06-29T02:45:41.453Z,91.90
2018-06-29T02:48:09.829Z,92.00
2018-06-29T02:50:38.651Z,91.70
2018-06-29T02:53:08.012Z,91.60
2018-06-29T02:55:36.328Z,91.80
2018-06-29T02:58:04.681Z,91.70
2018-06-29T03:00:33.003Z,92.00
2018-06-29T03:03:02.301Z,92.30
2018-06-29T03:05:30.600Z,92.80
2018-06-29T03:07:58.952Z,93.40
2018-06-29T03:10:27.285Z,93.20
2018-06-29T03:12:55.604Z,93.20
2018-06-29T03:15:23.918Z,93.20
2018-06-29T03:17:52.204Z,93.20
2018-06-29T03:20:20.527Z,92.80
2018-06-29T03:22:48.852Z,92.30
2018-06-29T03:25:17.204Z,91.90
2018-06-29T03:27:45.492Z,91.60
2018-06-29T03:30:13.810Z,91.50
2018-06-29T03:32:42.130Z,91.60
2018-06-29T03:35:10.428Z,92.00
2018-06-29T03:37:38.728Z,92.60
2018-06-29T03:40:07.164Z,93.10
2018-06-29T03:42:35.469Z,93.30
2018-06-29T03:45:04.257Z,93.30
2018-06-29T03:47:32.543Z,93.40
2018-06-29T03:50:00.880Z,93.50
2018-06-29T03:52:29.188Z,93.40
2018-06-29T03:54:57.480Z,93.30
2018-06-29T03:57:26.077Z,93.30
2018-06-29T03:59:54.416Z,93.20
2018-06-29T04:02:22.767Z,93.30
2018-06-29T04:04:51.071Z,93.40
2018-06-29T04:07:19.445Z,93.40
2018-06-29T04:09:47.751Z,93.70
2018-06-29T04:12:16.065Z,94.00
2018-06-29T04:14:44.380Z,94.10
2018-06-29T04:17:12.708Z,94.00
2018-06-29T04:19:41.039Z,94.10
2018-06-29T04:22:09.852Z,94.20
2018-06-29T04:24:38.191Z,94.10
2018-06-29T04:27:06.508Z,93.90
2018-06-29T04:29:34.848Z,93.60
2018-06-29T04:32:03.153Z,93.60
2018-06-29T04:34:31.460Z,93.40
2018-06-29T04:36:59.808Z,93.10
2018-06-29T04:39:28.131Z,93.00
2018-06-29T04:41:56.470Z,93.00
2018-06-29T04:44:24.783Z,92.80
2018-06-29T04:46:53.111Z,93.00
2018-06-29T04:49:22.255Z,93.00
2018-06-29T04:51:50.569Z,93.20
2018-06-29T04:54:18.907Z,93.00
2018-06-29T04:56:47.588Z,92.90
2018-06-29T04:59:15.906Z,93.10
2018-06-29T05:01:44.250Z,93.00
2018-06-29T05:04:12.584Z,93.00
2018-06-29T05:06:41.409Z,93.10
2018-06-29T05:09:09.843Z,92.90
2018-06-29T05:11:38.692Z,92.50
2018-06-29T05:14:07.163Z,92.60
2018-06-29T05:16:36.156Z,92.60
2018-06-29T05:19:05.198Z,92.60
2018-06-29T05:21:33.636Z,92.70
2018-06-29T05:24:02.163Z,92.90
2018-06-29T05:26:30.543Z,93.00
2018-06-29T05:28:58.868Z,92.80
2018-06-29T05:31:27.597Z,92.60
2018-06-29T05:33:56.034Z,92.70
2018-06-29T05:36:24.441Z,92.70
2018-06-29T05:38:52.749Z,91.90
2018-06-29T05:41:21.146Z,92.00
2018-06-29T05:43:49.472Z,91.80
2018-06-29T05:46:17.839Z,91.60
2018-06-29T05:48:46.216Z,91.50
2018-06-29T05:51:14.513Z,90.70
2018-06-29T05:53:42.825Z,91.30
2018-06-29T05:56:11.141Z,91.10
2018-06-29T05:58:39.515Z,90.40
2018-06-29T06:01:09.808Z,90.30
2018-06-29T06:03:38.147Z,90.40
2018-06-29T06:06:06.936Z,90.50
2018-06-29T06:08:35.308Z,89.40
2018-06-29T06:11:03.648Z,89.40
2018-06-29T06:13:32.265Z,88.00
2018-06-29T06:16:01.200Z,88.50
2018-06-29T06:18:29.844Z,88.00
2018-06-29T06:20:58.188Z,87.40
2018-06-29T06:23:26.500Z,88.30
2018-06-29T06:25:54.809Z,87.70
2018-06-29T06:28:23.167Z,86.70
2018-06-29T06:30:51.544Z,85.40
2018-06-29T06:33:19.887Z,85.30
2018-06-29T06:35:48.224Z,85.20
2018-06-29T06:38:16.527Z,85.80
2018-06-29T06:40:45.099Z,85.80
2018-06-29T06:43:13.412Z,85.50
2018-06-29T06:45:41.748Z,87.00
2018-06-29T06:48:10.088Z,86.40
2018-06-29T06:50:38.755Z,84.40
2018-06-29T06:53:07.112Z,83.00
2018-06-29T06:55:35.419Z,82.20
2018-06-29T06:58:03.760Z,83.30
2018-06-29T07:00:32.060Z,84.90
2018-06-29T07:03:00.360Z,83.50
2018-06-29T07:05:28.700Z,82.30
2018-06-29T07:07:57.004Z,81.40
2018-06-29T07:10:25.304Z,84.00
2018-06-29T07:12:53.615Z,83.50
2018-06-29T07:15:22.224Z,81.30
2018-06-29T07:17:50.583Z,80.80
2018-06-29T07:20:18.876Z,78.80
2018-06-29T07:22:47.188Z,79.00
2018-06-29T07:25:15.512Z,78.70
2018-06-29T07:27:45.975Z,77.30
2018-06-29T07:30:14.340Z,76.80
2018-06-29T07:32:42.647Z,77.40
2018-06-29T07:35:10.978Z,77.00
2018-06-29T07:37:39.273Z,75.40
2018-06-29T07:40:07.628Z,75.70
2018-06-29T07:42:35.957Z,73.90
2018-06-29T07:45:05.004Z,73.60
2018-06-29T07:47:33.344Z,75.50
2018-06-29T07:50:01.681Z,72.90
2018-06-29T07:52:29.988Z,74.10
2018-06-29T07:54:58.297Z,72.50
2018-06-29T07:57:26.613Z,72.80
2018-06-29T07:59:54.928Z,73.70
2018-06-29T08:02:23.244Z,72.40
2018-06-29T08:04:51.536Z,70.20
2018-06-29T08:07:19.844Z,70.90
2018-06-29T08:09:48.139Z,68.50
2018-06-29T08:12:16.475Z,69.40
2018-06-29T08:14:45.072Z,68.00
2018-06-29T08:17:13.445Z,68.00
2018-06-29T08:19:41.732Z,67.60
2018-06-29T08:22:10.560Z,66.00
2018-06-29T08:24:49.964Z,66.20
2018-06-29T08:27:18.287Z,65.10
2018-06-29T08:29:46.600Z,63.90
2018-06-29T08:32:14.912Z,64.20
2018-06-29T08:34:43.234Z,64.30
2018-06-29T08:37:11.981Z,64.40
2018-06-29T08:39:40.329Z,63.60
2018-06-29T08:42:09.460Z,63.80
2018-06-29T08:44:37.807Z,64.40
2018-06-29T08:47:06.390Z,61.90
2018-06-29T08:49:34.795Z,61.40
2018-06-29T08:52:03.156Z,61.70
2018-06-29T08:54:31.476Z,60.20
2018-06-29T08:56:59.916Z,61.00
2018-06-29T08:59:28.228Z,59.60
2018-06-29T09:01:57.175Z,58.30
2018-06-29T09:04:25.766Z,59.80
2018-06-29T09:06:54.066Z,57.70
2018-06-29T09:09:22.369Z,59.80
2018-06-29T09:11:50.701Z,60.20
2018-06-29T09:14:19.012Z,60.20
2018-06-29T09:16:47.351Z,57.20
2018-06-29T09:19:15.724Z,59.00
2018-06-29T09:21:44.036Z,57.10
2018-06-29T09:24:12.320Z,58.40
2018-06-29T09:26:40.644Z,56.50
2018-06-29T09:29:09.015Z,55.60
2018-06-29T09:31:37.502Z,57.00
2018-06-29T09:34:05.835Z,54.70
2018-06-29T09:36:34.367Z,54.50
2018-06-29T09:39:02.729Z,55.00
2018-06-29T09:41:31.093Z,54.90
2018-06-29T09:43:59.656Z,56.60
2018-06-29T09:46:28.272Z,55.20
2018-06-29T09:48:56.572Z,56.40
2018-06-29T09:51:25.092Z,53.70
2018-06-29T09:53:53.408Z,54.20
2018-06-29T09:56:21.740Z,56.50
2018-06-29T09:58:50.804Z,53.70
2018-06-29T10:01:19.188Z,57.20
2018-06-29T10:03:47.437Z,53.80
2018-06-29T10:06:15.829Z,53.00
2018-06-29T10:08:44.132Z,53.70
2018-06-29T10:11:12.456Z,52.70
2018-06-29T10:13:40.793Z,53.60
2018-06-29T10:16:09.091Z,51.50
2018-06-29T10:18:37.429Z,49.00
2018-06-29T10:21:05.764Z,52.40
2018-06-29T10:23:34.116Z,50.20
2018-06-29T10:26:02.476Z,49.40
2018-06-29T10:28:30.911Z,53.00
2018-06-29T10:30:59.377Z,51.10
2018-06-29T10:33:27.712Z,48.60
2018-06-29T10:35:56.099Z,49.30
2018-06-29T10:38:24.391Z,49.00
2018-06-29T10:40:53.339Z,48.20
2018-06-29T10:43:21.656Z,48.30
2018-06-29T10:45:49.969Z,48.00
2018-06-29T10:48:18.323Z,48.70
2018-06-29T10:50:46.698Z,45.80
2018-06-29T10:53:14.992Z,47.30
2018-06-29T10:55:43.901Z,44.80
2018-06-29T10:58:12.208Z,46.40
2018-06-29T11:00:40.528Z,45.30
2018-06-29T11:03:08.947Z,43.40
2018-06-29T11:05:37.323Z,45.60
2018-06-29T11:08:05.743Z,43.80
2018-06-29T11:10:34.089Z,43.00
2018-06-29T11:13:02.432Z,43.80
2018-06-29T11:15:30.820Z,43.80
2018-06-29T11:17:59.749Z,43.50
2018-06-29T11:20:28.096Z,41.80
2018-06-29T11:22:56.492Z,43.50
2018-06-29T11:25:25.054Z,43.60
2018-06-29T11:27:53.348Z,42.50
2018-06-29T11:30:21.722Z,44.60
2018-06-29T11:32:50.112Z,44.30
2018-06-29T11:35:18.420Z,43.30
2018-06-29T11:37:46.727Z,42.70
2018-06-29T11:40:15.074Z,42.90
2018-06-29T11:42:43.977Z,43.80
2018-06-29T11:45:12.333Z,44.10
2018-06-29T11:47:40.629Z,44.20
2018-06-29T11:50:08.967Z,43.00
2018-06-29T11:52:37.263Z,42.80
2018-06-29T11:55:05.900Z,42.00
2018-06-29T11:57:34.212Z,42.00
2018-06-29T12:00:02.564Z,41.10
2018-06-29T12:02:31.016Z,42.40
2018-06-29T12:04:59.337Z,41.30
2018-06-29T12:07:27.701Z,41.10
2018-06-29T12:09:56.024Z,40.90
2018-06-29T12:12:24.416Z,39.30
2018-06-29T12:14:52.882Z,40.40
2018-06-29T12:17:21.149Z,41.30
2018-06-29T12:19:49.461Z,39.20
2018-06-29T12:22:17.802Z,40.10
2018-06-29T12:24:46.112Z,39.50
2018-06-29T12:27:14.420Z,43.20
2018-06-29T12:29:42.743Z,40.60
2018-06-29T12:32:11.165Z,43.20
2018-06-29T12:34:39.468Z,39.10
2018-06-29T12:37:07.814Z,39.50
2018-06-29T12:39:36.140Z,41.70
2018-06-29T12:42:04.521Z,38.60
2018-06-29T12:44:33.327Z,43.60
2018-06-29T12:47:01.624Z,39.30
2018-06-29T12:49:30.096Z,38.90
2018-06-29T12:51:58.398Z,37.90
2018-06-29T12:54:26.737Z,38.90
2018-06-29T12:56:55.036Z,39.80
2018-06-29T12:59:23.347Z,38.70
2018-06-29T13:01:51.639Z,37.70
2018-06-29T13:04:19.949Z,38.90
2018-06-29T13:06:48.279Z,36.40
2018-06-29T13:09:16.578Z,39.20
2018-06-29T13:11:44.868Z,36.90
2018-06-29T13:14:13.245Z,37.20
2018-06-29T13:16:41.487Z,36.30
2018-06-29T13:19:09.823Z,37.70
2018-06-29T13:21:38.132Z,34.20
2018-06-29T13:24:06.487Z,38.30
2018-06-29T13:26:34.904Z,40.00
2018-06-29T13:29:03.535Z,37.40
2018-06-29T13:31:31.884Z,36.00
2018-06-29T13:34:00.207Z,38.00
2018-06-29T13:36:28.568Z,38.90
2018-06-29T13:38:56.941Z,34.70
2018-06-29T13:41:25.254Z,37.50
2018-06-29T13:43:54.195Z,36.70
2018-06-29T13:46:22.451Z,38.10
2018-06-29T13:48:51.305Z,38.10
2018-06-29T13:51:19.620Z,38.70
2018-06-29T13:53:47.935Z,36.40
2018-06-29T13:56:16.321Z,39.40
2018-06-29T13:58:44.624Z,37.20
2018-06-29T14:01:12.960Z,37.60
2018-06-29T14:03:41.288Z,36.10
2018-06-29T14:06:10.360Z,35.60
2018-06-29T14:08:38.732Z,36.90
2018-06-29T14:11:07.045Z,31.40
2018-06-29T14:13:35.444Z,36.50
2018-06-29T14:16:04.692Z,35.50
2018-06-29T14:18:33.028Z,34.50
2018-06-29T14:21:01.328Z,36.10
2018-06-29T14:23:29.640Z,34.30
2018-06-29T14:25:57.969Z,34.30
2018-06-29T14:28:26.288Z,35.80
2018-06-29T14:30:54.620Z,37.50
2018-06-29T14:33:24.003Z,36.70
2018-06-29T14:35:53.153Z,36.30
2018-06-29T14:38:21.499Z,33.40
2018-06-29T14:40:49.837Z,32.00
2018-06-29T14:43:18.180Z,32.50
2018-06-29T14:45:46.513Z,33.00
2018-06-29T14:48:14.811Z,32.40
2018-06-29T14:50:43.208Z,33.10
2018-06-29T14:53:11.642Z,32.40
2018-06-29T14:55:39.961Z,33.00
2018-06-29T14:58:08.250Z,31.70
2018-06-29T15:00:36.580Z,30.50
2018-06-29T15:03:05.094Z,30.60
2018-06-29T15:05:34.779Z,31.80
2018-06-29T15:08:03.092Z,32.50
2018-06-29T15:10:31.396Z,29.50
2018-06-29T15:13:00.384Z,31.80
2018-06-29T15:15:28.748Z,32.80
2018-06-29T15:17:57.072Z,30.60
2018-06-29T15:20:25.438Z,28.80
2018-06-29T15:22:53.767Z,31.80
2018-06-29T15:25:22.121Z,31.60
2018-06-29T15:27:50.387Z,30.30
2018-06-29T15:30:19.437Z,31.80
2018-06-29T15:32:47.768Z,32.70
2018-06-29T15:35:16.101Z,32.00
2018-06-29T15:37:44.418Z,29.70
2018-06-29T15:40:12.723Z,31.40
2018-06-29T15:42:41.034Z,30.30
2018-06-29T15:45:09.388Z,31.60
2018-06-29T15:47:37.720Z,30.00
2018-06-29T15:50:06.207Z,30.50
2018-06-29T15:52:35.052Z,32.90
2018-06-29T15:55:03.809Z,31.00
2018-06-29T15:57:32.132Z,30.50
2018-06-29T16:00:00.477Z,31.10
2018-06-29T16:02:28.912Z,29.90
2018-06-29T16:04:57.240Z,32.60
2018-06-29T16:07:25.623Z,33.10
2018-06-29T16:09:53.964Z,31.70
2018-06-29T16:12:22.248Z,32.10
2018-06-29T16:14:50.559Z,32.50
2018-06-29T16:17:18.875Z,31.30
2018-06-29T16:19:47.208Z,33.20
2018-06-29T16:22:15.544Z,32.30
2018-06-29T16:24:43.854Z,31.70
2018-06-29T16:27:12.192Z,32.30
2018-06-29T16:29:40.513Z,33.00
2018-06-29T16:32:09.427Z,31.70
2018-06-29T16:34:37.741Z,32.50
2018-06-29T16:37:10.741Z,32.20
2018-06-29T16:39:41.447Z,32.90
2018-06-29T16:42:09.907Z,33.20
2018-06-29T16:44:41.114Z,32.30
2018-06-29T16:47:12.717Z,32.80
2018-06-29T16:49:41.303Z,33.50
2018-06-29T16:52:09.652Z,32.80
2018-06-29T16:54:37.996Z,32.50
2018-06-29T16:57:06.335Z,34.00
2018-06-29T16:59:34.637Z,33.50
2018-06-29T17:02:02.955Z,33.60
2018-06-29T17:04:31.256Z,31.70
2018-06-29T17:06:59.568Z,34.10
2018-06-29T17:09:27.867Z,33.00
2018-06-29T17:11:56.159Z,34.90
2018-06-29T17:14:24.848Z,34.10
2018-06-29T17:16:53.218Z,34.50
2018-06-29T17:19:21.595Z,33.80
2018-06-29T17:21:49.916Z,35.20
2018-06-29T17:24:18.220Z,36.30
2018-06-29T17:26:46.564Z,34.50
2018-06-29T17:29:14.935Z,33.30
2018-06-29T17:31:43.192Z,34.70
2018-06-29T17:34:11.676Z,33.80
2018-06-29T17:36:40.002Z,35.20
2018-06-29T17:39:09.678Z,33.60
2018-06-29T17:41:38.177Z,35.30
2018-06-29T17:44:06.489Z,35.20
2018-06-29T17:46:34.918Z,36.00
2018-06-29T17:49:03.296Z,38.20
2018-06-29T17:51:31.645Z,37.60
2018-06-29T17:54:00.002Z,37.50
2018-06-29T17:56:28.260Z,37.90
2018-06-29T17:58:56.585Z,38.80
2018-06-29T18:01:25.019Z,40.60
2018-06-29T18:03:53.321Z,39.50
2018-06-29T18:06:21.644Z,39.80
2018-06-29T18:08:49.948Z,39.30
2018-06-29T18:11:18.264Z,40.40
2018-06-29T18:13:46.551Z,40.00
2018-06-29T18:16:14.955Z,40.50
2018-06-29T18:18:43.164Z,39.70
2018-06-29T18:21:11.472Z,41.20
2018-06-29T18:23:39.798Z,42.40
2018-06-29T18:26:08.091Z,41.70
2018-06-29T18:28:36.452Z,42.90
2018-06-29T18:31:04.803Z,42.30
2018-06-29T18:33:33.238Z,42.40
2018-06-29T18:36:01.628Z,43.40
2018-06-29T18:38:29.936Z,43.70
2018-06-29T18:40:58.267Z,43.30
2018-06-29T18:43:26.586Z,43.90
2018-06-29T18:45:54.946Z,45.10
2018-06-29T18:48:23.265Z,44.60
2018-06-29T18:50:51.607Z,45.20
2018-06-29T18:53:20.049Z,46.00
2018-06-29T18:55:48.384Z,46.10
2018-06-29T18:58:17.831Z,45.30
2018-06-29T19:00:46.133Z,46.50
2018-06-29T19:03:14.520Z,45.50
2018-06-29T19:05:42.865Z,47.10
2018-06-29T19:08:11.181Z,48.30
2018-06-29T19:10:39.497Z,48.90
2018-06-29T19:13:07.948Z,47.50
2018-06-29T19:15:36.247Z,46.70
2018-06-29T19:18:04.682Z,47.40
2018-06-29T19:20:34.000Z,48.10
2018-06-29T19:23:02.312Z,48.10
2018-06-29T19:25:30.652Z,47.60
2018-06-29T19:27:58.952Z,48.30
2018-06-29T19:30:27.268Z,47.80
2018-06-29T19:32:55.580Z,47.80
2018-06-29T19:35:23.912Z,48.20
2018-06-29T19:37:52.357Z,47.80
2018-06-29T19:40:20.668Z,48.30
2018-06-29T19:42:49.116Z,48.10
2018-06-29T19:45:17.424Z,48.00
2018-06-29T19:47:45.819Z,48.40
2018-06-29T19:50:14.212Z,48.80
2018-06-29T19:52:42.592Z,50.40
2018-06-29T19:55:10.932Z,51.20
2018-06-29T19:57:39.952Z,51.40
2018-06-29T20:00:08.315Z,52.20
2018-06-29T20:02:36.637Z,52.60
2018-06-29T20:05:05.367Z,53.20
2018-06-29T20:07:33.645Z,53.20
2018-06-29T20:10:01.995Z,52.90
2018-06-29T20:12:30.335Z,52.70
2018-06-29T20:14:58.967Z,52.30
2018-06-29T20:17:27.360Z,52.60
2018-06-29T20:19:55.900Z,52.40
2018-06-29T20:22:24.189Z,52.60
2018-06-29T20:24:52.516Z,52.90
2018-06-29T20:27:20.904Z,53.20
2018-06-29T20:29:49.200Z,53.20
2018-06-29T20:32:17.572Z,53.70
2018-06-29T20:34:45.877Z,54.00
2018-06-29T20:37:14.215Z,53.40
2018-06-29T20:39:42.537Z,53.40
2018-06-29T20:42:10.865Z,53.30
2018-06-29T20:44:39.926Z,54.00
2018-06-29T20:47:08.239Z,54.00
2018-06-29T20:49:36.562Z,55.20
2018-06-29T20:52:04.903Z,56.40
2018-06-29T20:54:33.475Z,56.70
2018-06-29T20:57:01.785Z,56.80
2018-06-29T20:59:30.119Z,56.60
2018-06-29T21:01:58.424Z,58.30
2018-06-29T21:04:26.768Z,58.20
2018-06-29T21:06:55.116Z,59.70
2018-06-29T21:09:23.440Z,60.70
2018-06-29T21:11:51.859Z,61.30
2018-06-29T21:14:20.174Z,62.30
2018-06-29T21:16:48.491Z,62.10
2018-06-29T21:19:16.849Z,63.60
2018-06-29T21:21:45.260Z,64.50
2018-06-29T21:24:13.712Z,66.10
2018-06-29T21:26:42.041Z,67.20
2018-06-29T21:29:10.387Z,67.80
2018-06-29T21:31:38.684Z,68.00
2018-06-29T21:34:07.064Z,68.00
2018-06-29T21:36:35.392Z,67.90
2018-06-29T21:39:04.637Z,68.30
2018-06-29T21:41:32.936Z,68.70
2018-06-29T21:44:01.266Z,69.00
2018-06-29T21:46:29.594Z,69.50
2018-06-29T21:48:57.940Z,70.60
2018-06-29T21:51:26.319Z,71.30
2018-06-29T21:53:54.722Z,72.80
2018-06-29T21:56:23.016Z,72.90
2018-06-29T21:58:51.315Z,73.50
2018-06-29T22:01:19.614Z,73.40
2018-06-29T22:03:47.960Z,74.00
2018-06-29T22:06:16.268Z,74.20
2018-06-29T22:08:44.556Z,74.90
2018-06-29T22:11:12.875Z,75.20
2018-06-29T22:13:41.265Z,75.50
2018-06-29T22:16:09.583Z,75.70
2018-06-29T22:18:37.892Z,76.20
2018-06-29T22:21:06.288Z,76.50
2018-06-29T22:23:34.588Z,76.70
2018-06-29T22:26:02.947Z,77.40
2018-06-29T22:28:31.268Z,78.10
2018-06-29T22:30:59.575Z,78.50
2018-06-29T22:33:28.163Z,78.80
2018-06-29T22:35:56.505Z,79.30
2018-06-29T22:38:24.831Z,79.90
2018-06-29T22:40:53.124Z,80.10
2018-06-29T22:43:21.436Z,80.60
2018-06-29T22:45:49.755Z,80.80
2018-06-29T22:48:18.121Z,81.10
2018-06-29T22:50:46.449Z,81.20
2018-06-29T22:53:15.488Z,81.50
2018-06-29T22:55:43.796Z,81.60
2018-06-29T22:58:12.735Z,81.50
2018-06-29T23:00:41.062Z,81.40
2018-06-29T23:03:11.048Z,81.40
2018-06-29T23:05:39.372Z,81.20
2018-06-29T23:08:10.069Z,81.10
2018-06-29T23:10:38.692Z,81.10
2018-06-29T23:13:07.275Z,81.50
2018-06-29T23:15:35.592Z,81.90
2018-06-29T23:18:04.020Z,82.20
2018-06-29T23:20:32.376Z,82.30
2018-06-29T23:23:00.695Z,82.20
2018-06-29T23:25:29.101Z,82.40
2018-06-29T23:27:57.388Z,82.50
2018-06-29T23:30:25.689Z,82.50
2018-06-29T23:32:54.011Z,82.60
2018-06-29T23:35:22.339Z,83.00
2018-06-29T23:37:50.673Z,83.30
2018-06-29T23:40:18.981Z,83.70
2018-06-29T23:42:47.312Z,83.90
2018-06-29T23:45:15.617Z,84.60
2018-06-29T23:47:43.936Z,84.60
2018-06-29T23:50:12.260Z,84.70
2018-06-29T23:52:40.577Z,84.60
2018-06-29T23:55:08.920Z,84.80
2018-06-29T23:57:37.254Z,85.20
